createdAt,value
2018-06-16T15:40:49.973Z,96128
2018-06-16T15:41:59.736Z,93696
2018-06-16T15:43:09.258Z,92736
2018-06-16T15:44:19.283Z,93056
2018-06-16T15:45:29.407Z,88544
2018-06-16T15:46:39.224Z,88192
2018-06-16T15:47:49.067Z,87552
2018-06-16T15:48:59.112Z,85952
2018-06-16T15:50:08.619Z,85024
2018-06-16T15:51:18.413Z,84096
2018-06-16T15:52:28.510Z,81632
2018-06-16T15:53:38.009Z,83392
2018-06-16T15:54:47.778Z,81152
2018-06-16T15:55:57.816Z,82208
2018-06-16T15:57:09.992Z,80288
2018-06-16T15:58:19.921Z,77440
2018-06-16T15:59:29.680Z,78496
2018-06-16T16:00:39.173Z,78048
2018-06-16T16:01:49.209Z,78688
2018-06-16T16:02:59.237Z,76000
2018-06-16T16:04:08.472Z,76000
2018-06-16T16:05:18.497Z,77184
2018-06-16T16:06:28.261Z,76192
2018-06-16T16:07:37.490Z,75008
2018-06-16T16:08:47.250Z,76672
2018-06-16T16:09:57.006Z,77664
2018-06-16T16:11:06.524Z,77952
2018-06-16T16:12:16.551Z,74016
2018-06-16T16:13:26.594Z,77856
2018-06-16T16:14:36.620Z,74848
2018-06-16T16:15:46.116Z,75584
2018-06-16T16:16:55.612Z,15556
2018-06-16T16:18:05.370Z,15504
2018-06-16T16:19:14.871Z,21952
2018-06-16T16:20:24.375Z,42240
2018-06-16T16:21:34.414Z,79168
2018-06-16T16:22:44.179Z,74016
2018-06-16T16:23:54.212Z,69760
2018-06-16T16:25:03.973Z,68032
2018-06-16T16:26:15.733Z,69056
2018-06-16T16:27:25.494Z,70592
2018-06-16T16:28:35.517Z,68800
2018-06-16T16:29:45.280Z,70112
2018-06-16T16:30:54.773Z,69536
2018-06-16T16:32:04.465Z,67040
2018-06-16T16:33:13.960Z,65600
2018-06-16T16:34:23.454Z,62496
2018-06-16T16:35:33.208Z,60576
2018-06-16T16:36:42.706Z,53536
2018-06-16T16:37:52.816Z,27776
2018-06-16T16:39:02.309Z,39776
2018-06-16T16:40:11.879Z,57760
2018-06-16T16:41:21.990Z,55008
2018-06-16T16:42:31.745Z,48512
2018-06-16T16:43:41.502Z,36480
2018-06-16T16:44:51.529Z,15776
2018-06-16T16:46:01.285Z,13636
2018-06-16T16:47:10.781Z,61312
2018-06-16T16:48:20.544Z,39456
2018-06-16T16:49:29.769Z,17984
2018-06-16T16:50:39.256Z,42688
2018-06-16T16:51:49.013Z,12808
2018-06-16T16:52:59.032Z,10484
2018-06-16T16:54:09.062Z,10328
2018-06-16T16:55:18.559Z,10392
2018-06-16T16:56:28.095Z,10360
2018-06-16T16:57:38.115Z,10620
2018-06-16T16:58:47.861Z,10840
2018-06-16T16:59:57.895Z,11252
2018-06-16T17:01:07.918Z,11272
2018-06-16T17:02:17.671Z,11468
2018-06-16T17:03:26.886Z,12044
2018-06-16T17:04:36.652Z,12296
2018-06-16T17:05:46.670Z,12344
2018-06-16T17:06:56.706Z,12348
2018-06-16T17:08:06.488Z,12288
2018-06-16T17:09:16.240Z,12248
2018-06-16T17:10:25.992Z,12308
2018-06-16T17:11:36.009Z,12468
2018-06-16T17:12:45.752Z,12452
2018-06-16T17:13:55.762Z,12500
2018-06-16T17:15:05.242Z,12552
2018-06-16T17:16:14.991Z,12576
2018-06-16T17:17:25.005Z,13000
2018-06-16T17:18:34.753Z,18720
2018-06-16T17:19:44.779Z,19712
2018-06-16T17:20:54.799Z,14388
2018-06-16T17:22:04.546Z,16352
2018-06-16T17:23:14.619Z,18272
2018-06-16T17:24:24.365Z,12076
2018-06-16T17:25:34.386Z,11216
2018-06-16T17:26:43.613Z,10636
2018-06-16T17:27:53.665Z,10280
2018-06-16T17:29:03.683Z,10056
2018-06-16T17:30:13.701Z,9920
2018-06-16T17:31:23.722Z,9884
2018-06-16T17:32:33.734Z,9752
2018-06-16T17:33:43.751Z,9632
2018-06-16T17:34:53.505Z,9644
2018-06-16T17:36:03.531Z,9460
2018-06-16T17:37:13.009Z,9164
2018-06-16T17:38:23.027Z,8904
2018-06-16T17:39:32.504Z,8904
2018-06-16T17:40:42.519Z,8084
2018-06-16T17:41:52.532Z,7872
2018-06-16T17:43:02.278Z,8004
2018-06-16T17:44:12.291Z,8224
2018-06-16T17:45:22.322Z,8160
2018-06-16T17:46:32.338Z,8156
2018-06-16T17:47:42.402Z,8252
2018-06-16T17:48:52.417Z,8452
2018-06-16T17:50:02.160Z,8736
2018-06-16T17:51:11.803Z,9124
2018-06-16T17:52:21.961Z,8984
2018-06-16T17:53:31.715Z,8572
2018-06-16T17:54:41.461Z,8328
2018-06-16T17:55:50.671Z,8148
2018-06-16T17:57:00.414Z,7956
2018-06-16T17:58:10.161Z,7820
2018-06-16T17:59:19.646Z,7716
2018-06-16T18:00:29.400Z,7660
2018-06-16T18:01:38.881Z,7604
2018-06-16T18:02:48.896Z,7536
2018-06-16T18:03:58.647Z,7524
2018-06-16T18:05:07.862Z,7584
2018-06-16T18:06:17.873Z,7648
2018-06-16T18:07:27.622Z,7684
2018-06-16T18:08:37.373Z,7712
2018-06-16T18:09:47.385Z,7708
2018-06-16T18:10:57.398Z,7688
2018-06-16T18:12:07.409Z,7656
2018-06-16T18:13:17.204Z,7652
2018-06-16T18:14:27.215Z,7632
2018-06-16T18:15:37.061Z,7604
2018-06-16T18:16:47.186Z,7620
2018-06-16T18:17:57.552Z,7608
2018-06-16T18:19:07.029Z,7568
2018-06-16T18:20:16.772Z,7500
2018-06-16T18:21:25.986Z,7416
2018-06-16T18:22:35.997Z,7336
2018-06-16T18:23:45.744Z,7288
2018-06-16T18:24:55.802Z,7252
2018-06-16T18:26:05.275Z,7188
2018-06-16T18:27:15.021Z,7228
2018-06-16T18:28:24.765Z,7284
2018-06-16T18:29:34.523Z,7128
2018-06-16T18:30:44.529Z,7104
2018-06-16T18:31:54.276Z,7156
2018-06-16T18:33:04.288Z,7200
2018-06-16T18:34:14.295Z,7168
2018-06-16T18:35:24.309Z,7148
2018-06-16T18:36:34.328Z,7196
2018-06-16T18:37:44.571Z,7204
2018-06-16T18:38:54.643Z,7020
2018-06-16T18:40:04.131Z,6792
2018-06-16T18:41:13.881Z,6664
2018-06-16T18:42:23.892Z,6556
2018-06-16T18:43:33.632Z,6436
2018-06-16T18:44:43.378Z,6316
2018-06-16T18:45:53.121Z,6164
2018-06-16T18:47:02.606Z,5948
2018-06-16T18:48:12.629Z,5700
2018-06-16T18:49:22.641Z,5444
2018-06-16T18:50:32.662Z,5236
2018-06-16T18:51:42.671Z,5064
2018-06-16T18:52:52.685Z,4896
2018-06-16T18:54:02.693Z,4768
2018-06-16T18:55:12.446Z,4632
2018-06-16T18:56:22.553Z,4492
2018-06-16T18:57:32.295Z,4364
2018-06-16T18:58:42.088Z,4256
2018-06-16T18:59:51.832Z,4188
2018-06-16T19:01:01.845Z,4172
2018-06-16T19:02:11.589Z,4184
2018-06-16T19:03:21.330Z,4228
2018-06-16T19:04:31.079Z,4268
2018-06-16T19:05:40.565Z,4300
2018-06-16T19:06:50.042Z,4324
2018-06-16T19:08:00.053Z,4340
2018-06-16T19:09:09.539Z,4368
2018-06-16T19:10:19.558Z,4384
2018-06-16T19:11:29.031Z,4376
2018-06-16T19:12:38.788Z,4344
2018-06-16T19:13:47.731Z,4300
2018-06-16T19:14:57.474Z,4248
2018-06-16T19:16:06.984Z,4180
2018-06-16T19:17:16.597Z,4092
2018-06-16T19:18:26.614Z,3976
2018-06-16T19:19:36.626Z,3852
2018-06-16T19:20:46.823Z,3724
2018-06-16T19:21:56.296Z,3612
2018-06-16T19:23:05.967Z,3508
2018-06-16T19:24:16.330Z,3412
2018-06-16T19:25:26.078Z,3316
2018-06-16T19:26:35.827Z,3212
2018-06-16T19:27:45.575Z,3092
2018-06-16T19:28:55.062Z,2948
2018-06-16T19:30:04.584Z,2792
2018-06-16T19:31:14.327Z,2636
2018-06-16T19:32:24.335Z,2500
2018-06-16T19:33:34.349Z,2384
2018-06-16T19:34:43.557Z,2300
2018-06-16T19:35:52.769Z,2248
2018-06-16T19:37:02.517Z,2216
2018-06-16T19:38:12.542Z,2208
2018-06-16T19:39:22.555Z,2212
2018-06-16T19:40:32.567Z,2212
2018-06-16T19:41:42.579Z,2216
2018-06-16T19:42:52.333Z,2216
2018-06-16T19:44:02.345Z,2216
2018-06-16T19:45:12.350Z,2212
2018-06-16T19:46:22.356Z,2200
2018-06-16T19:47:32.383Z,2184
2018-06-16T19:48:42.399Z,2152
2018-06-16T19:49:51.608Z,2104
2018-06-16T19:51:01.619Z,2044
2018-06-16T19:52:10.834Z,1968
2018-06-16T19:53:20.633Z,1880
2018-06-16T19:54:30.104Z,1796
2018-06-16T19:55:40.113Z,1720
2018-06-16T19:56:49.862Z,1636
2018-06-16T19:57:59.880Z,1552
2018-06-16T19:59:09.895Z,1468
2018-06-16T20:00:19.634Z,1404
2018-06-16T20:01:29.107Z,1388
2018-06-16T20:02:38.846Z,1468
2018-06-16T20:03:48.589Z,1540
2018-06-16T20:04:58.596Z,1532
2018-06-16T20:06:08.079Z,1380
2018-06-16T20:07:18.088Z,1248
2018-06-16T20:08:28.119Z,1216
2018-06-16T20:09:37.870Z,1112
2018-06-16T20:10:47.633Z,984
2018-06-16T20:11:57.865Z,916
2018-06-16T20:13:07.341Z,864
2018-06-16T20:14:17.082Z,816
2018-06-16T20:15:26.832Z,768
2018-06-16T20:16:36.577Z,728
2018-06-16T20:17:46.054Z,696
2018-06-16T20:18:55.805Z,664
2018-06-16T20:20:05.550Z,636
2018-06-16T20:21:15.557Z,608
2018-06-16T20:22:25.303Z,584
2018-06-16T20:23:35.313Z,560
2018-06-16T20:24:45.366Z,536
2018-06-16T20:25:55.113Z,512
2018-06-16T20:27:04.860Z,488
2018-06-16T20:28:14.598Z,468
2018-06-16T20:29:24.605Z,444
2018-06-16T20:30:34.082Z,420
2018-06-16T20:31:43.556Z,404
2018-06-16T20:32:53.302Z,372
2018-06-16T20:34:03.044Z,352
2018-06-16T20:35:12.791Z,324
2018-06-16T20:36:22.799Z,296
2018-06-16T20:37:32.757Z,272
2018-06-16T20:38:42.666Z,256
2018-06-16T20:39:52.415Z,240
2018-06-16T20:41:02.432Z,224
2018-06-16T20:42:11.907Z,212
2018-06-16T20:43:21.643Z,200
2018-06-16T20:44:31.659Z,192
2018-06-16T20:45:41.407Z,188
2018-06-16T20:46:51.412Z,180
2018-06-16T20:48:01.462Z,176
2018-06-16T20:49:11.477Z,164
2018-06-16T20:50:21.222Z,156
2018-06-16T20:51:31.224Z,148
2018-06-16T20:52:41.232Z,140
2018-06-16T20:53:50.978Z,132
2018-06-16T20:55:00.984Z,120
2018-06-16T20:56:10.728Z,112
2018-06-16T20:57:20.739Z,104
2018-06-16T20:58:30.212Z,96
2018-06-16T20:59:39.952Z,88
2018-06-16T21:00:49.965Z,80
2018-06-16T21:01:59.968Z,76
2018-06-16T21:03:09.713Z,72
2018-06-16T21:04:19.188Z,68
2018-06-16T21:05:29.198Z,68
2018-06-16T21:06:39.208Z,60
2018-06-16T21:07:48.961Z,60
2018-06-16T21:08:58.709Z,56
2018-06-16T21:10:08.185Z,52
2018-06-16T21:11:17.928Z,48
2018-06-16T21:12:27.936Z,48
2018-06-16T21:13:37.949Z,44
2018-06-16T21:14:47.950Z,44
2018-06-16T21:15:57.967Z,40
2018-06-16T21:17:07.976Z,36
2018-06-16T21:18:17.989Z,36
2018-06-16T21:19:28.001Z,32
2018-06-16T21:20:38.011Z,32
2018-06-16T21:21:47.751Z,32
2018-06-16T21:22:57.760Z,28
2018-06-16T21:24:07.509Z,28
2018-06-16T21:25:17.561Z,28
2018-06-16T21:26:27.038Z,24
2018-06-16T21:27:37.049Z,24
2018-06-16T21:28:46.798Z,24
2018-06-16T21:29:56.804Z,24
2018-06-16T21:31:06.594Z,16
2018-06-16T21:32:16.602Z,16
2018-06-16T21:33:26.618Z,16
2018-06-16T21:34:38.358Z,16
2018-06-16T21:35:48.365Z,16
2018-06-16T21:36:58.106Z,16
2018-06-16T21:38:07.851Z,12
2018-06-16T21:39:17.646Z,12
2018-06-16T21:40:27.657Z,12
2018-06-16T21:41:37.397Z,12
2018-06-16T21:42:47.408Z,12
2018-06-16T21:43:57.149Z,8
2018-06-16T21:45:06.895Z,12
2018-06-16T21:46:16.636Z,8
2018-06-16T21:47:26.649Z,8
2018-06-16T21:48:36.397Z,4
2018-06-16T21:49:46.136Z,8
2018-06-16T21:50:55.878Z,8
2018-06-16T21:52:05.882Z,4
2018-06-16T21:53:15.621Z,4
2018-06-16T21:54:25.365Z,8
2018-06-16T21:55:35.106Z,8
2018-06-16T21:56:44.870Z,4
2018-06-16T21:57:54.615Z,4
2018-06-16T21:59:04.365Z,4
2018-06-16T22:00:13.572Z,4
2018-06-16T22:01:23.323Z,4
2018-06-16T22:02:33.068Z,4
2018-06-16T22:03:42.541Z,4
2018-06-16T22:04:52.016Z,4
2018-06-16T22:06:02.029Z,4
2018-06-16T22:07:11.508Z,4
2018-06-16T22:08:21.254Z,0
2018-06-16T22:09:31.349Z,0
2018-06-16T22:10:41.223Z,4
2018-06-16T22:11:51.230Z,4
2018-06-16T22:13:00.974Z,4
2018-06-16T22:14:10.731Z,4
2018-06-16T22:15:20.474Z,4
2018-06-16T22:16:30.482Z,0
2018-06-16T22:17:40.229Z,0
2018-06-16T22:18:49.538Z,0
2018-06-16T22:19:59.385Z,0
2018-06-16T22:21:08.328Z,0
2018-06-16T22:22:18.337Z,0
2018-06-16T22:23:28.344Z,0
2018-06-16T22:24:38.358Z,0
2018-06-16T22:25:47.839Z,0
2018-06-16T22:26:57.313Z,4
2018-06-16T22:28:07.323Z,4
2018-06-16T22:29:17.349Z,4
2018-06-16T22:30:27.362Z,4
2018-06-16T22:31:37.376Z,4
2018-06-16T22:32:47.122Z,4
2018-06-16T22:33:56.860Z,4
2018-06-16T22:35:06.077Z,4
2018-06-16T22:36:15.552Z,0
2018-06-16T22:37:25.305Z,0
2018-06-16T22:38:35.047Z,0
2018-06-16T22:39:44.536Z,0
2018-06-16T22:40:54.548Z,0
2018-06-16T22:42:04.291Z,0
2018-06-16T22:43:14.034Z,0
2018-06-16T22:44:24.037Z,0
2018-06-16T22:45:33.778Z,0
2018-06-16T22:46:43.518Z,0
2018-06-16T22:47:53.257Z,0
2018-06-16T22:49:03.001Z,0
2018-06-16T22:50:12.962Z,0
2018-06-16T22:51:23.124Z,0
2018-06-16T22:52:32.864Z,0
2018-06-16T22:53:42.870Z,0
2018-06-16T22:54:52.343Z,0
2018-06-16T22:56:02.088Z,0
2018-06-16T22:57:12.096Z,0
2018-06-16T22:58:22.106Z,0
2018-06-16T22:59:31.846Z,0
2018-06-16T23:00:41.853Z,0
2018-06-16T23:01:51.861Z,0
2018-06-16T23:03:01.740Z,0
2018-06-16T23:04:11.485Z,0
2018-06-16T23:05:21.503Z,0
2018-06-16T23:06:31.527Z,0
2018-06-16T23:07:41.541Z,0
2018-06-16T23:08:51.552Z,0
2018-06-16T23:10:01.577Z,0
2018-06-16T23:11:11.591Z,0
2018-06-16T23:12:21.340Z,0
2018-06-16T23:13:31.085Z,0
2018-06-16T23:14:40.825Z,0
2018-06-16T23:15:50.297Z,0
2018-06-16T23:17:00.362Z,0
2018-06-16T23:18:10.378Z,0
2018-06-16T23:19:20.392Z,0
2018-06-16T23:20:30.400Z,0
2018-06-16T23:21:40.416Z,0
2018-06-16T23:22:50.423Z,0
2018-06-16T23:24:00.434Z,0
2018-06-16T23:25:10.450Z,0
2018-06-16T23:26:20.463Z,0
2018-06-16T23:27:30.209Z,0
2018-06-16T23:28:39.952Z,0
2018-06-16T23:29:49.706Z,0
2018-06-16T23:30:59.722Z,0
2018-06-16T23:32:08.665Z,0
2018-06-16T23:33:18.405Z,0
2018-06-16T23:34:27.879Z,0
2018-06-16T23:35:37.663Z,0
2018-06-16T23:36:47.406Z,0
2018-06-16T23:37:57.415Z,0
2018-06-16T23:39:07.428Z,0
2018-06-16T23:40:17.176Z,0
2018-06-16T23:41:27.185Z,0
2018-06-16T23:42:37.235Z,0
2018-06-16T23:43:46.977Z,0
2018-06-16T23:44:56.982Z,0
2018-06-16T23:46:06.454Z,0
2018-06-16T23:47:16.205Z,0
2018-06-16T23:48:25.690Z,0
2018-06-16T23:49:35.694Z,0
2018-06-16T23:50:45.705Z,0
2018-06-16T23:51:55.446Z,0
2018-06-16T23:53:05.193Z,0
2018-06-16T23:54:14.932Z,0
2018-06-16T23:55:24.930Z,0
2018-06-16T23:56:34.943Z,0
2018-06-16T23:57:44.955Z,0
2018-06-16T23:58:54.958Z,0
